Time;durP1;ratioP1;P1;durP2;ratioP2;P2;SDS_P1;SDS_P2;PMS_P1;PMS_P2;Temp;Humidity;BMP_temperature;BMP_pressure;BME280_temperature;BME280_humidity;BME280_pressure;Samples;Min_cycle;Max_cycle;Signal;HPM_P1;HPM_P2
2022/05/29 00:00:12;;;;;;;3.38;1.90;;;24.00;45.10;;;;;;5060402;28;20553;-58
2022/05/29 00:02:38;;;;;;;2.75;1.80;;;24.00;45.10;;;;;;5058554;28;20029;-63
2022/05/29 00:05:04;;;;;;;3.42;2.00;;;24.00;45.10;;;;;;5058790;28;20483;-61
2022/05/29 00:07:30;;;;;;;3.65;1.95;;;24.00;45.10;;;;;;5056830;28;20067;-64
2022/05/29 00:09:56;;;;;;;3.42;2.05;;;24.00;45.10;;;;;;5061404;28;20020;-58
2022/05/29 00:12:23;;;;;;;2.60;1.70;;;24.00;45.10;;;;;;5059608;28;20570;-63
2022/05/29 00:14:48;;;;;;;3.05;2.08;;;24.00;45.00;;;;;;5059716;28;20044;-58
2022/05/29 00:17:16;;;;;;;3.42;1.95;;;24.00;45.00;;;;;;5058981;28;20109;-64
2022/05/29 00:19:42;;;;;;;3.30;1.95;;;23.90;45.00;;;;;;5060501;28;20024;-64
2022/05/29 00:22:10;;;;;;;4.13;2.00;;;23.90;45.00;;;;;;5055303;28;20658;-60
2022/05/29 00:24:36;;;;;;;2.92;1.90;;;23.90;44.90;;;;;;5057117;28;20025;-60
2022/05/29 00:27:02;;;;;;;3.10;1.90;;;23.90;45.00;;;;;;5056946;28;20029;-59
2022/05/29 00:29:28;;;;;;;3.17;1.80;;;23.90;45.00;;;;;;5060558;28;20075;-64
2022/05/29 00:31:54;;;;;;;3.08;1.73;;;23.90;45.00;;;;;;5059209;28;20079;-58
2022/05/29 00:34:20;;;;;;;2.55;1.70;;;23.90;44.90;;;;;;5056712;28;20024;-60
2022/05/29 00:36:46;;;;;;;2.80;1.77;;;23.90;44.90;;;;;;5056082;28;20037;-62
2022/05/29 00:39:15;;;;;;;3.05;1.92;;;23.90;44.80;;;;;;5058267;28;20097;-58
2022/05/29 00:41:41;;;;;;;2.50;1.52;;;23.90;44.90;;;;;;5057534;28;20020;-64
2022/05/29 00:44:15;;;;;;;2.92;1.63;;;23.90;44.90;;;;;;5057897;28;20470;-64
2022/05/29 00:46:51;;;;;;;3.10;1.90;;;23.90;44.90;;;;;;5058538;28;20107;-58
2022/05/29 00:49:21;;;;;;;2.55;1.58;;;23.90;44.80;;;;;;5060031;28;20543;-63
2022/05/29 00:51:53;;;;;;;2.60;1.58;;;23.90;44.90;;;;;;5055017;28;20028;-61
2022/05/29 00:54:19;;;;;;;2.50;1.50;;;23.90;44.90;;;;;;5059053;28;20050;-58
2022/05/29 00:56:45;;;;;;;2.95;1.60;;;23.90;44.80;;;;;;5061917;28;20509;-61
2022/05/29 00:59:18;;;;;;;2.47;1.58;;;23.90;44.90;;;;;;5058333;28;20103;-58
2022/05/29 01:01:44;;;;;;;2.78;2.03;;;23.90;44.90;;;;;;5058104;28;20032;-64
2022/05/29 01:04:10;;;;;;;2.33;1.40;;;23.90;44.80;;;;;;5058628;28;20119;-60
2022/05/29 01:06:36;;;;;;;2.58;1.58;;;23.80;44.90;;;;;;5056221;28;20035;-62
2022/05/29 01:09:03;;;;;;;2.30;1.50;;;23.80;44.80;;;;;;5058894;28;20021;-57
2022/05/29 01:11:38;;;;;;;2.95;1.73;;;23.80;44.80;;;;;;5057567;28;20043;-59
2022/05/29 01:14:13;;;;;;;2.00;1.30;;;23.80;44.80;;;;;;5058858;28;20162;-63
2022/05/29 01:16:47;;;;;;;2.45;1.60;;;23.80;44.80;;;;;;5057316;28;20051;-64
2022/05/29 01:19:32;;;;;;;2.40;1.40;;;23.80;44.80;;;;;;5057026;28;20464;-58
2022/05/29 01:22:35;;;;;;;2.50;1.50;;;23.80;44.80;;;;;;5057241;28;20028;-61
2022/05/29 01:25:28;;;;;;;2.33;1.55;;;23.80;44.80;;;;;;5057805;28;20029;-61
2022/05/29 01:28:08;;;;;;;2.40;1.60;;;23.80;44.90;;;;;;5057504;28;20031;-59
2022/05/29 01:31:12;;;;;;;2.45;1.50;;;23.80;44.90;;;;;;5056830;28;20087;-59
2022/05/29 01:34:04;;;;;;;2.03;1.30;;;23.80;44.90;;;;;;5055056;28;20928;-58
2022/05/29 01:36:41;;;;;;;2.33;1.50;;;23.80;44.80;;;;;;5056553;28;20032;-60
2022/05/29 01:39:14;;;;;;;3.42;1.50;;;23.80;44.80;;;;;;5057877;28;20173;-63
2022/05/29 01:41:53;;;;;;;3.47;1.60;;;23.70;44.80;;;;;;5058448;28;20075;-62
2022/05/29 01:44:48;;;;;;;2.97;1.67;;;23.70;44.80;;;;;;5057859;28;20124;-56
2022/05/29 01:47:40;;;;;;;2.22;1.30;;;23.70;44.80;;;;;;5057231;28;20048;-58
2022/05/29 01:50:11;;;;;;;2.63;1.40;;;23.70;44.80;;;;;;5054499;28;20055;-64
2022/05/29 01:53:26;;;;;;;2.30;1.40;;;23.70;44.80;;;;;;5055585;28;20041;-62
2022/05/29 01:55:58;;;;;;;2.53;1.23;;;23.70;44.80;;;;;;5045292;28;20508;-63
2022/05/29 01:58:30;;;;;;;2.03;1.10;;;23.70;45.30;;;;;;5058403;28;20173;-61
2022/05/29 02:01:00;;;;;;;2.33;1.35;;;23.70;44.80;;;;;;5058475;28;20666;-63
2022/05/29 02:03:38;;;;;;;2.45;1.38;;;23.70;44.90;;;;;;5057008;28;20094;-60
2022/05/29 02:06:22;;;;;;;2.40;1.30;;;23.70;44.80;;;;;;5056739;28;20603;-63
2022/05/29 02:08:56;;;;;;;2.53;1.35;;;23.70;44.90;;;;;;5055447;28;20027;-60
2022/05/29 02:11:28;;;;;;;1.92;1.30;;;23.60;44.80;;;;;;5056594;28;20071;-64
2022/05/29 02:14:07;;;;;;;1.70;1.13;;;23.70;44.80;;;;;;5059605;28;20563;-64
2022/05/29 02:16:43;;;;;;;2.45;1.38;;;23.60;44.80;;;;;;5059642;28;20810;-56
2022/05/29 02:19:25;;;;;;;2.00;1.30;;;23.60;44.80;;;;;;5058000;28;20044;-63
2022/05/29 02:22:05;;;;;;;2.60;1.63;;;23.60;44.80;;;;;;5053764;28;20056;-59
2022/05/29 02:24:33;;;;;;;;;;;23.60;44.80;;;;;;5057134;28;20020;-63
2022/05/29 02:27:21;;;;;;;2.00;1.20;;;23.60;44.80;;;;;;5055717;28;20026;-58
2022/05/29 02:29:47;;;;;;;2.50;1.38;;;23.60;44.80;;;;;;5058166;28;20067;-63
2022/05/29 02:32:22;;;;;;;1.92;1.30;;;23.60;44.90;;;;;;5056099;28;20033;-59
2022/05/29 02:35:03;;;;;;;2.30;1.40;;;23.60;44.90;;;;;;5057874;28;20029;-63
2022/05/29 02:37:51;;;;;;;2.33;1.35;;;23.60;44.90;;;;;;5055178;28;20101;-64
2022/05/29 02:40:29;;;;;;;1.70;1.20;;;23.60;44.90;;;;;;5041690;28;20489;-64
2022/05/29 02:43:05;;;;;;;1.90;1.15;;;23.50;44.90;;;;;;5057233;28;20468;-58
2022/05/29 02:45:57;;;;;;;2.42;1.50;;;23.50;44.90;;;;;;5057760;28;20048;-64
2022/05/29 02:48:32;;;;;;;2.10;1.40;;;23.50;44.90;;;;;;5056705;28;20024;-64
2022/05/29 02:51:12;;;;;;;2.28;1.27;;;23.50;44.90;;;;;;5057423;28;20028;-60
2022/05/29 02:53:43;;;;;;;2.22;1.13;;;23.50;44.90;;;;;;5055372;28;20028;-58
2022/05/29 02:56:10;;;;;;;2.10;1.23;;;23.50;44.90;;;;;;5056643;28;20473;-61
2022/05/29 02:58:39;;;;;;;1.90;1.30;;;23.50;44.90;;;;;;5056644;28;20055;-60
2022/05/29 03:01:36;;;;;;;2.08;1.17;;;23.50;45.00;;;;;;5056315;28;20048;-59
2022/05/29 03:04:15;;;;;;;2.22;1.20;;;23.50;45.00;;;;;;5055957;28;20025;-57
2022/05/29 03:06:47;;;;;;;1.70;1.10;;;23.50;45.00;;;;;;5056281;28;21633;-56
2022/05/29 03:09:41;;;;;;;2.15;1.15;;;23.50;45.00;;;;;;5059984;28;20034;-62
2022/05/29 03:12:30;;;;;;;1.92;1.10;;;23.40;44.90;;;;;;5060316;28;20111;-61
2022/05/29 03:15:23;;;;;;;2.00;1.27;;;23.40;44.90;;;;;;5050877;28;20464;-57
2022/05/29 03:18:07;;;;;;;2.40;1.35;;;23.40;44.90;;;;;;5059900;28;20040;-56
2022/05/29 03:20:41;;;;;;;1.75;1.10;;;23.40;45.00;;;;;;5058399;28;20028;-63
2022/05/29 03:23:28;;;;;;;1.63;1.10;;;23.40;44.90;;;;;;5057782;28;20108;-60
2022/05/29 03:26:00;;;;;;;2.42;1.10;;;23.40;45.00;;;;;;5061809;28;20021;-64
2022/05/29 03:29:02;;;;;;;1.98;1.20;;;23.40;45.00;;;;;;5061111;28;20120;-60
2022/05/29 03:31:30;;;;;;;1.77;1.10;;;23.40;45.00;;;;;;5038747;28;20051;-62
2022/05/29 03:33:57;;;;;;;2.28;1.20;;;23.40;45.00;;;;;;5060928;28;20195;-58
2022/05/29 03:36:25;;;;;;;1.38;1.00;;;23.40;45.00;;;;;;5057805;28;20024;-58
2022/05/29 03:38:51;;;;;;;1.95;1.13;;;23.30;44.90;;;;;;5059392;28;20031;-58
2022/05/29 03:41:28;;;;;;;2.08;1.27;;;23.40;45.00;;;;;;5057551;28;20177;-60
2022/05/29 03:43:54;;;;;;;1.75;1.08;;;23.30;45.00;;;;;;5059884;28;20118;-64
2022/05/29 03:46:20;;;;;;;1.85;1.23;;;23.40;45.00;;;;;;5059131;28;20021;-59
2022/05/29 03:48:45;;;;;;;2.15;1.15;;;23.40;45.10;;;;;;5061159;28;20032;-63
2022/05/29 03:51:11;;;;;;;1.60;1.10;;;23.30;45.00;;;;;;5056649;28;20060;-60
2022/05/29 03:53:36;;;;;;;1.67;1.00;;;23.30;45.00;;;;;;5058642;28;20028;-55
2022/05/29 03:56:04;;;;;;;1.65;1.08;;;23.30;45.00;;;;;;5059918;28;20062;-59
2022/05/29 03:58:30;;;;;;;1.85;1.10;;;23.30;45.00;;;;;;5061111;28;20024;-58
2022/05/29 04:00:56;;;;;;;1.60;1.10;;;23.30;45.00;;;;;;5058197;28;20103;-62
2022/05/29 04:03:22;;;;;;;1.73;1.05;;;23.30;45.00;;;;;;5059130;28;20463;-63
2022/05/29 04:05:47;;;;;;;1.58;1.10;;;23.30;45.10;;;;;;5058669;28;20124;-60
2022/05/29 04:13:44;;;;;;;1.27;1.00;;;23.30;45.10;;;;;;5059642;28;20052;-61
2022/05/29 04:16:11;;;;;;;2.13;1.20;;;23.30;45.10;;;;;;5060485;28;20028;-61
2022/05/29 04:18:37;;;;;;;1.50;1.00;;;23.30;45.10;;;;;;5057527;28;20111;-57
2022/05/29 04:21:03;;;;;;;1.95;1.10;;;23.20;45.00;;;;;;5056711;28;20220;-60
2022/05/29 04:23:29;;;;;;;1.52;0.93;;;23.20;45.00;;;;;;5058087;28;20028;-57
2022/05/29 04:25:55;;;;;;;1.27;0.98;;;23.20;45.00;;;;;;5058250;28;20452;-60
2022/05/29 04:28:22;;;;;;;1.65;1.08;;;23.20;45.10;;;;;;5060044;28;20048;-57
2022/05/29 04:30:48;;;;;;;1.33;1.00;;;23.20;45.10;;;;;;5058362;28;20067;-61
2022/05/29 04:33:14;;;;;;;1.85;1.10;;;23.20;45.10;;;;;;5058545;28;20048;-64
2022/05/29 04:35:43;;;;;;;1.95;1.10;;;23.20;45.10;;;;;;5058225;28;20040;-59
2022/05/29 04:38:09;;;;;;;1.55;0.90;;;23.20;45.10;;;;;;5057718;28;20054;-59
2022/05/29 04:40:40;;;;;;;1.38;1.00;;;23.20;45.10;;;;;;5057709;28;20028;-58
2022/05/29 04:43:06;;;;;;;1.90;1.10;;;23.20;45.10;;;;;;5058397;28;20040;-58
2022/05/29 04:45:32;;;;;;;1.60;1.00;;;23.20;45.10;;;;;;5058868;28;20039;-63
2022/05/29 04:47:58;;;;;;;1.73;1.08;;;23.20;45.20;;;;;;5060630;28;20113;-59
2022/05/29 04:50:25;;;;;;;1.50;1.10;;;23.20;45.10;;;;;;5061323;28;20099;-60
2022/05/29 04:52:50;;;;;;;1.80;1.05;;;23.20;45.10;;;;;;5057154;28;20047;-60
2022/05/29 04:55:17;;;;;;;2.10;1.30;;;23.20;45.10;;;;;;5057178;28;20040;-59
2022/05/29 04:57:42;;;;;;;1.63;1.00;;;23.20;45.20;;;;;;5058656;28;20047;-59
2022/05/29 05:00:08;;;;;;;2.03;1.10;;;23.20;45.20;;;;;;5060438;28;20029;-58
2022/05/29 05:02:34;;;;;;;1.65;1.10;;;23.10;45.10;;;;;;5059086;28;20031;-62
2022/05/29 05:05:00;;;;;;;1.67;1.00;;;23.10;45.10;;;;;;5059228;28;20020;-63
2022/05/29 05:07:25;;;;;;;1.70;1.00;;;23.20;45.20;;;;;;5054992;28;20028;-58
2022/05/29 05:09:51;;;;;;;1.60;0.95;;;23.10;45.20;;;;;;5059067;28;20044;-64
2022/05/29 05:12:17;;;;;;;1.00;0.80;;;23.10;45.20;;;;;;5057720;28;20537;-60
2022/05/29 05:14:43;;;;;;;1.48;1.10;;;23.10;45.20;;;;;;5058741;28;20472;-57
2022/05/29 05:17:08;;;;;;;2.10;1.10;;;23.10;45.20;;;;;;5059206;28;20032;-58
2022/05/29 05:19:34;;;;;;;1.50;0.98;;;23.10;45.20;;;;;;5059504;28;20097;-65
2022/05/29 05:22:02;;;;;;;1.05;0.90;;;23.10;45.20;;;;;;5058010;28;20024;-59
2022/05/29 05:24:27;;;;;;;1.75;1.02;;;23.10;45.20;;;;;;5057290;28;20032;-57
2022/05/29 05:26:53;;;;;;;1.20;0.90;;;23.10;45.20;;;;;;5057974;28;20713;-62
2022/05/29 05:29:19;;;;;;;1.00;0.80;;;23.10;45.20;;;;;;5059603;28;20732;-64
2022/05/29 05:31:44;;;;;;;2.20;1.02;;;23.10;45.20;;;;;;5057796;28;20044;-59
2022/05/29 05:34:10;;;;;;;1.48;1.00;;;23.10;45.20;;;;;;5058527;28;20021;-56
2022/05/29 05:36:36;;;;;;;1.33;0.90;;;23.10;45.20;;;;;;5055942;28;20542;-62
2022/05/29 05:39:01;;;;;;;1.55;0.85;;;23.10;45.20;;;;;;5056266;28;20032;-57
2022/05/29 05:41:27;;;;;;;1.60;0.90;;;23.10;45.20;;;;;;5058466;28;20123;-63
2022/05/29 05:43:53;;;;;;;1.20;0.80;;;23.00;45.20;;;;;;5057760;28;20028;-62
2022/05/29 05:46:19;;;;;;;1.15;0.90;;;23.10;45.70;;;;;;5057341;28;20063;-58
2022/05/29 05:48:45;;;;;;;1.20;0.90;;;23.00;45.20;;;;;;5057586;28;20047;-60
2022/05/29 05:51:12;;;;;;;1.50;1.00;;;23.10;45.30;;;;;;5056995;28;20518;-60
2022/05/29 05:53:39;;;;;;;1.40;0.95;;;23.10;45.80;;;;;;5058237;28;20032;-58
2022/05/29 05:56:11;;;;;;;1.65;1.00;;;23.00;45.20;;;;;;5056999;28;20039;-59
2022/05/29 05:58:38;;;;;;;1.50;1.00;;;23.00;45.20;;;;;;5058244;28;20114;-60
2022/05/29 06:01:09;;;;;;;1.63;0.98;;;23.00;45.30;;;;;;5057539;28;20044;-58
2022/05/29 06:03:35;;;;;;;1.10;0.80;;;23.00;45.30;;;;;;5054089;28;20036;-64
2022/05/29 06:06:01;;;;;;;1.17;0.95;;;23.00;45.30;;;;;;5056189;28;20031;-62
2022/05/29 06:08:26;;;;;;;1.02;0.90;;;23.00;45.30;;;;;;5058112;28;20079;-62
2022/05/29 06:10:52;;;;;;;1.60;1.17;;;23.00;45.30;;;;;;5056221;28;20024;-60
2022/05/29 06:13:18;;;;;;;1.95;0.95;;;23.00;45.30;;;;;;5056096;28;20017;-64
2022/05/29 06:15:46;;;;;;;1.23;1.00;;;23.00;45.30;;;;;;5057502;28;20291;-63
2022/05/29 06:18:13;;;;;;;1.10;0.82;;;23.00;45.30;;;;;;5058011;28;20024;-63
2022/05/29 06:20:39;;;;;;;1.05;0.90;;;23.00;45.30;;;;;;5056931;28;20074;-64
2022/05/29 06:23:05;;;;;;;1.70;1.00;;;23.00;45.30;;;;;;5054050;28;20127;-60
2022/05/29 06:25:30;;;;;;;1.02;0.80;;;22.90;45.20;;;;;;5057076;28;20021;-61
2022/05/29 06:27:56;;;;;;;1.02;0.80;;;23.00;45.30;;;;;;5053694;28;20058;-65
2022/05/29 06:30:22;;;;;;;1.20;0.80;;;22.90;45.30;;;;;;5056843;28;20113;-60
2022/05/29 06:32:47;;;;;;;1.50;0.90;;;23.00;45.30;;;;;;5056118;28;20437;-59
2022/05/29 06:35:15;;;;;;;1.23;0.95;;;22.90;45.30;;;;;;5057133;28;20678;-58
2022/05/29 06:37:42;;;;;;;1.40;1.00;;;22.90;45.30;;;;;;5054014;28;20020;-59
2022/05/29 06:40:10;;;;;;;1.50;1.00;;;22.90;45.30;;;;;;5055566;28;20043;-64
2022/05/29 06:42:36;;;;;;;1.45;1.00;;;22.90;45.30;;;;;;5056130;28;21242;-58
2022/05/29 06:45:06;;;;;;;1.65;1.00;;;22.90;45.40;;;;;;5054250;28;20109;-58
2022/05/29 06:47:33;;;;;;;1.33;0.90;;;22.90;45.40;;;;;;5057075;28;20058;-64
2022/05/29 06:49:59;;;;;;;1.38;1.00;;;22.90;45.40;;;;;;5055899;28;20104;-61
2022/05/29 06:52:29;;;;;;;1.55;0.93;;;22.90;45.40;;;;;;5052253;28;20044;-60
2022/05/29 06:54:55;;;;;;;1.38;0.90;;;22.90;45.40;;;;;;5054225;28;20037;-64
2022/05/29 06:57:36;;;;;;;2.03;1.00;;;22.90;45.40;;;;;;5054866;28;20456;-64
2022/05/29 07:08:31;;;;;;;1.38;0.80;;;22.90;45.50;;;;;;5056439;28;20047;-63
2022/05/29 07:11:03;;;;;;;1.25;1.00;;;22.90;45.50;;;;;;5054613;28;20101;-64
2022/05/29 07:13:31;;;;;;;1.00;0.90;;;22.90;45.50;;;;;;5056467;28;20024;-62
2022/05/29 07:15:57;;;;;;;1.38;0.85;;;22.90;45.50;;;;;;5056863;28;20291;-56
2022/05/29 07:18:22;;;;;;;1.83;1.00;;;22.90;45.50;;;;;;5055273;28;20040;-59
2022/05/29 07:20:48;;;;;;;1.55;0.90;;;22.90;45.60;;;;;;5056010;28;20455;-57
2022/05/29 07:23:16;;;;;;;1.70;1.00;;;22.90;45.60;;;;;;5053419;28;20033;-57
2022/05/29 07:25:42;;;;;;;1.60;0.93;;;22.90;45.60;;;;;;5054902;28;20101;-63
2022/05/29 07:28:08;;;;;;;1.65;1.02;;;22.90;45.60;;;;;;5057019;28;20041;-60
2022/05/29 07:30:35;;;;;;;1.30;0.90;;;22.90;45.60;;;;;;5053553;28;20587;-59
2022/05/29 07:33:00;;;;;;;2.47;1.00;;;22.90;45.60;;;;;;5053771;28;20027;-62
2022/05/29 07:35:26;;;;;;;2.17;1.00;;;22.90;45.60;;;;;;5055793;28;20033;-62
2022/05/29 07:37:52;;;;;;;1.10;0.90;;;22.90;45.60;;;;;;5054697;28;20028;-60
2022/05/29 07:40:18;;;;;;;1.17;0.77;;;22.90;45.70;;;;;;5058909;28;20129;-64
2022/05/29 07:45:28;;;;;;;0.90;0.75;;;22.90;45.70;;;;;;5054824;28;20506;-66
2022/05/29 07:47:55;;;;;;;1.00;0.80;;;22.90;45.70;;;;;;5056471;28;20036;-63
2022/05/29 07:50:21;;;;;;;1.35;0.90;;;22.90;45.70;;;;;;5056349;28;20039;-61
2022/05/29 07:52:49;;;;;;;1.50;0.90;;;22.90;45.70;;;;;;5055612;28;20096;-61
2022/05/29 07:55:15;;;;;;;1.13;0.82;;;22.90;45.70;;;;;;5058994;28;20036;-60
2022/05/29 07:57:41;;;;;;;1.08;0.88;;;22.90;45.70;;;;;;5059926;28;20036;-60
2022/05/29 08:00:10;;;;;;;1.33;0.80;;;22.90;45.70;;;;;;5056970;28;20515;-61
2022/05/29 08:02:36;;;;;;;0.82;0.65;;;22.90;45.70;;;;;;5059153;28;20040;-62
2022/05/29 08:05:07;;;;;;;1.02;0.80;;;22.90;45.70;;;;;;5058833;28;20024;-63
2022/05/29 08:07:33;;;;;;;0.85;0.80;;;22.90;45.80;;;;;;5058976;28;20389;-61
2022/05/29 08:09:58;;;;;;;0.77;0.70;;;22.90;45.90;;;;;;5058020;28;20047;-65
2022/05/29 08:12:25;;;;;;;1.25;0.70;;;22.90;46.00;;;;;;5057375;28;20495;-61
2022/05/29 08:14:53;;;;;;;1.17;0.90;;;22.90;46.00;;;;;;5055205;28;20063;-59
2022/05/29 08:17:19;;;;;;;1.17;0.80;;;22.90;46.00;;;;;;5057249;28;20036;-59
2022/05/29 08:19:45;;;;;;;1.00;0.80;;;22.90;46.00;;;;;;5058833;28;20403;-64
2022/05/29 08:22:11;;;;;;;1.50;0.90;;;22.90;46.00;;;;;;5057528;28;20529;-59
2022/05/29 08:30:37;;;;;;;1.60;0.90;;;22.90;46.00;;;;;;5058563;28;20042;-61
2022/05/29 08:33:04;;;;;;;2.17;1.00;;;22.90;45.90;;;;;;5053491;28;20159;-59
2022/05/29 08:35:30;;;;;;;1.13;0.80;;;22.90;45.90;;;;;;5056428;28;20482;-61
2022/05/29 08:37:56;;;;;;;0.80;0.70;;;22.90;45.90;;;;;;5050303;28;20033;-64
2022/05/29 08:40:22;;;;;;;1.25;0.80;;;22.90;45.90;;;;;;5055531;28;20526;-59
2022/05/29 08:42:48;;;;;;;1.52;0.90;;;22.90;45.90;;;;;;5057397;28;20617;-58
2022/05/29 08:45:15;;;;;;;1.38;0.70;;;22.90;45.90;;;;;;5054959;28;20056;-59
2022/05/29 08:47:45;;;;;;;1.42;0.80;;;22.90;45.90;;;;;;5053582;28;20111;-60
2022/05/29 08:50:30;;;;;;;1.00;0.75;;;22.90;45.90;;;;;;5055734;28;20470;-63
2022/05/29 08:53:05;;;;;;;0.93;0.75;;;22.90;45.90;;;;;;5054418;28;20028;-59
2022/05/29 08:55:51;;;;;;;0.82;0.70;;;22.90;45.90;;;;;;5054136;28;20743;-60
2022/05/29 08:58:25;;;;;;;1.90;0.88;;;22.90;45.90;;;;;;5056853;28;20123;-63
2022/05/29 09:01:01;;;;;;;0.82;0.70;;;22.90;45.90;;;;;;5052273;28;20093;-62
2022/05/29 09:03:49;;;;;;;0.77;0.77;;;22.90;45.90;;;;;;5055269;28;20503;-58
2022/05/29 09:06:17;;;;;;;1.40;0.82;;;22.90;45.90;;;;;;5052213;28;20032;-59
2022/05/29 09:08:51;;;;;;;1.27;0.82;;;22.90;45.90;;;;;;5054909;28;20028;-61
2022/05/29 09:11:24;;;;;;;1.45;0.80;;;22.90;45.90;;;;;;5055067;28;20028;-60
2022/05/29 09:13:54;;;;;;;1.52;0.90;;;22.90;45.90;;;;;;5053314;28;20036;-60
2022/05/29 09:16:23;;;;;;;1.00;0.80;;;22.90;45.90;;;;;;5053999;28;20025;-63
2022/05/29 09:19:22;;;;;;;1.15;0.80;;;22.90;45.90;;;;;;5055414;28;20420;-64
2022/05/29 09:22:21;;;;;;;1.67;0.90;;;22.90;45.90;;;;;;5049697;28;20926;-58
2022/05/29 09:25:10;;;;;;;1.33;0.82;;;22.90;45.90;;;;;;5052865;28;20064;-60
2022/05/29 09:27:42;;;;;;;1.45;0.88;;;22.90;45.90;;;;;;5052846;28;20040;-62
2022/05/29 09:30:08;;;;;;;1.23;0.70;;;22.90;45.90;;;;;;5051038;28;20134;-61
2022/05/29 09:32:36;;;;;;;1.00;0.77;;;22.90;46.00;;;;;;5052457;28;20063;-61
2022/05/29 09:35:26;;;;;;;0.85;0.70;;;22.90;46.00;;;;;;5051833;28;20437;-61
2022/05/29 09:38:30;;;;;;;1.55;0.80;;;22.90;46.10;;;;;;5051848;28;20090;-61
2022/05/29 09:41:25;;;;;;;0.60;0.60;;;22.90;46.00;;;;;;5051634;28;20170;-62
2022/05/29 09:44:09;;;;;;;0.93;0.80;;;22.90;46.00;;;;;;5056854;28;20223;-60
2022/05/29 09:46:38;;;;;;;0.80;0.63;;;22.90;46.10;;;;;;5054716;28;20059;-63
2022/05/29 09:52:06;;;;;;;1.27;0.77;;;22.90;46.10;;;;;;5052937;28;20055;-62
2022/05/29 09:54:37;;;;;;;2.22;0.90;;;22.90;46.10;;;;;;5052542;28;20089;-60
2022/05/29 09:57:11;;;;;;;1.40;0.80;;;22.90;46.10;;;;;;5052597;28;20032;-60
2022/05/29 09:59:40;;;;;;;1.13;0.80;;;22.90;46.10;;;;;;5053288;28;20154;-61
2022/05/29 10:02:10;;;;;;;1.35;0.80;;;22.90;46.10;;;;;;5051780;28;20044;-62
2022/05/29 10:04:39;;;;;;;0.82;0.70;;;22.90;46.10;;;;;;5055306;28;20020;-58
2022/05/29 10:07:27;;;;;;;1.25;0.77;;;22.90;46.20;;;;;;5053149;28;20364;-61
2022/05/29 10:10:06;;;;;;;0.88;0.70;;;23.00;46.20;;;;;;5055705;28;20028;-61
2022/05/29 10:12:49;;;;;;;1.42;0.70;;;23.00;46.30;;;;;;5055938;28;20110;-59
2022/05/29 10:15:26;;;;;;;1.35;0.70;;;23.00;46.30;;;;;;5056019;28;20042;-58
2022/05/29 10:17:53;;;;;;;1.25;0.75;;;23.00;46.30;;;;;;5059439;28;20512;-60
2022/05/29 10:20:30;;;;;;;1.25;0.70;;;23.00;46.30;;;;;;5052974;28;20043;-60
2022/05/29 10:22:57;;;;;;;1.63;0.90;;;23.00;46.30;;;;;;5055167;28;20060;-57
2022/05/29 10:25:27;;;;;;;1.73;0.90;;;23.00;46.40;;;;;;5054314;28;20507;-59
2022/05/29 10:28:00;;;;;;;2.38;1.05;;;23.00;46.40;;;;;;5056898;28;20187;-61
2022/05/29 10:30:43;;;;;;;1.23;0.80;;;23.00;46.40;;;;;;5054848;28;20048;-63
2022/05/29 10:33:17;;;;;;;2.05;0.80;;;23.10;46.50;;;;;;5055292;28;20175;-63
2022/05/29 10:35:43;;;;;;;1.20;0.70;;;23.10;46.50;;;;;;5054624;28;20047;-58
2022/05/29 10:38:18;;;;;;;1.10;0.80;;;23.10;46.50;;;;;;5055490;28;20032;-64
2022/05/29 10:40:47;;;;;;;2.15;0.80;;;23.10;46.60;;;;;;5054441;28;20036;-60
2022/05/29 10:43:32;;;;;;;1.08;0.70;;;23.10;46.60;;;;;;5056776;28;20463;-58
2022/05/29 10:46:04;;;;;;;1.05;0.77;;;23.10;46.60;;;;;;5055650;28;20055;-65
2022/05/29 10:48:39;;;;;;;0.90;0.65;;;23.10;46.60;;;;;;5055800;28;20392;-64
2022/05/29 10:51:11;;;;;;;1.27;0.70;;;23.10;46.60;;;;;;5047265;28;20395;-58
2022/05/29 10:53:55;;;;;;;1.42;0.90;;;23.10;46.60;;;;;;5049432;28;20032;-63
2022/05/29 10:56:52;;;;;;;2.90;0.70;;;23.10;46.60;;;;;;5050765;28;20025;-62
2022/05/29 10:59:44;;;;;;;2.58;0.80;;;23.10;46.60;;;;;;5052567;28;20059;-62
2022/05/29 11:05:20;;;;;;;1.25;0.70;;;23.10;46.60;;;;;;5050095;28;20043;-60
2022/05/29 11:08:00;;;;;;;0.70;0.60;;;23.10;46.60;;;;;;5040561;28;20067;-60
2022/05/29 11:10:59;;;;;;;1.33;0.80;;;23.10;46.50;;;;;;5049145;28;20032;-62
2022/05/29 11:13:27;;;;;;;1.20;0.80;;;23.10;46.60;;;;;;5050500;28;20472;-62
2022/05/29 11:16:20;;;;;;;1.83;0.80;;;23.10;46.50;;;;;;5050613;28;20032;-56
2022/05/29 11:19:24;;;;;;;0.85;0.68;;;23.10;46.50;;;;;;5049462;28;20025;-63
2022/05/29 11:22:07;;;;;;;1.35;0.80;;;23.10;46.50;;;;;;5047954;28;20519;-57
2022/05/29 11:25:01;;;;;;;1.40;0.75;;;23.10;46.50;;;;;;5048617;28;20020;-60
2022/05/29 11:27:30;;;;;;;2.20;0.93;;;23.10;46.80;;;;;;5048325;28;20028;-59
2022/05/29 11:30:02;;;;;;;1.15;0.75;;;23.10;46.50;;;;;;5054741;28;20052;-61
2022/05/29 11:32:52;;;;;;;3.15;0.80;;;23.10;46.50;;;;;;5050992;28;20068;-63
2022/05/29 11:35:51;;;;;;;1.48;0.95;;;23.10;46.50;;;;;;5053158;28;20032;-61
2022/05/29 11:38:54;;;;;;;0.93;0.68;;;23.20;46.60;;;;;;5051906;28;20065;-58
2022/05/29 11:41:36;;;;;;;0.65;0.60;;;23.10;46.60;;;;;;5017759;28;20052;-60
2022/05/29 11:44:27;;;;;;;1.10;0.70;;;23.20;46.60;;;;;;5054189;28;20152;-63
2022/05/29 11:52:59;;;;;;;0.80;0.60;;;23.10;46.50;;;;;;5052961;28;20169;-60
2022/05/29 11:55:34;;;;;;;0.90;0.70;;;23.20;46.70;;;;;;5053299;28;20204;-57
2022/05/29 11:58:07;;;;;;;1.20;0.70;;;23.10;46.60;;;;;;5054174;28;20123;-62
2022/05/29 12:00:39;;;;;;;0.90;0.80;;;23.20;46.60;;;;;;5049708;28;20052;-61
2022/05/29 12:03:43;;;;;;;1.70;0.80;;;23.20;46.60;;;;;;5054738;28;20030;-62
2022/05/29 12:06:15;;;;;;;0.98;0.70;;;23.20;46.80;;;;;;5017668;28;20075;-61
2022/05/29 12:08:47;;;;;;;1.05;0.77;;;23.20;46.80;;;;;;5055938;28;20107;-59
2022/05/29 12:11:46;;;;;;;1.25;0.70;;;23.20;46.80;;;;;;5055575;28;20037;-62
2022/05/29 12:14:32;;;;;;;1.33;0.80;;;23.20;46.90;;;;;;5055185;28;20151;-60
2022/05/29 12:17:28;;;;;;;1.40;0.80;;;23.20;46.80;;;;;;5054092;28;20123;-60
2022/05/29 12:20:19;;;;;;;1.30;0.60;;;23.20;47.10;;;;;;5056411;28;20039;-63
2022/05/29 12:23:07;;;;;;;0.90;0.60;;;23.20;46.90;;;;;;5021253;28;20546;-60
2022/05/29 12:26:00;;;;;;;0.98;0.70;;;23.20;46.90;;;;;;5055690;28;20036;-62
2022/05/29 12:28:53;;;;;;;1.35;0.70;;;23.20;46.90;;;;;;5049919;28;20190;-66
2022/05/29 12:31:39;;;;;;;0.77;0.50;;;23.20;46.90;;;;;;5053563;28;20121;-59
2022/05/29 12:34:07;;;;;;;1.40;0.60;;;23.20;46.80;;;;;;5053706;28;20108;-62
2022/05/29 12:36:54;;;;;;;1.80;0.80;;;23.20;46.80;;;;;;5052305;28;20155;-61
2022/05/29 12:39:47;;;;;;;1.50;0.60;;;23.20;46.80;;;;;;5054749;28;20496;-63
2022/05/29 12:42:28;;;;;;;2.35;0.80;;;23.20;46.70;;;;;;5057467;28;20040;-60
2022/05/29 12:45:11;;;;;;;1.85;0.90;;;23.20;46.70;;;;;;5055050;28;20040;-59
2022/05/29 12:47:47;;;;;;;1.77;0.80;;;23.20;46.70;;;;;;5050021;28;20061;-61
2022/05/29 12:50:25;;;;;;;2.78;0.90;;;23.20;46.90;;;;;;5053356;28;20473;-64
2022/05/29 12:53:05;;;;;;;2.85;1.00;;;23.20;47.20;;;;;;5050702;28;20071;-58
2022/05/29 12:55:37;;;;;;;1.85;0.80;;;23.20;47.30;;;;;;5053039;28;20043;-60
2022/05/29 12:58:43;;;;;;;1.83;0.90;;;23.30;47.00;;;;;;5056269;28;20139;-63
2022/05/29 13:01:43;;;;;;;1.75;0.80;;;23.30;47.10;;;;;;5053127;28;20040;-64
2022/05/29 13:04:24;;;;;;;1.83;0.90;;;23.30;47.00;;;;;;5050259;28;20043;-62
2022/05/29 13:06:50;;;;;;;1.60;0.73;;;23.30;46.90;;;;;;5050206;28;20032;-59
2022/05/29 13:09:21;;;;;;;1.33;0.80;;;23.30;46.70;;;;;;5054511;28;20032;-63
2022/05/29 13:12:01;;;;;;;1.10;0.70;;;23.30;46.60;;;;;;5054068;28;20028;-62
2022/05/29 13:14:28;;;;;;;1.40;0.70;;;23.30;46.60;;;;;;5050509;28;20043;-63
2022/05/29 13:17:10;;;;;;;1.80;0.80;;;23.30;46.50;;;;;;5048884;28;20464;-62
2022/05/29 13:19:59;;;;;;;1.40;0.75;;;23.30;46.40;;;;;;5051893;28;20468;-63
2022/05/29 13:22:49;;;;;;;1.75;0.70;;;23.30;46.30;;;;;;5048463;28;20400;-60
2022/05/29 13:25:17;;;;;;;2.78;0.80;;;23.30;46.30;;;;;;5051045;28;20028;-62
2022/05/29 13:27:43;;;;;;;3.05;1.02;;;23.30;46.60;;;;;;5046967;28;20025;-64
2022/05/29 13:30:39;;;;;;;2.30;1.10;;;23.40;46.50;;;;;;5052989;28;20047;-59
2022/05/29 13:33:27;;;;;;;2.20;1.00;;;23.40;46.30;;;;;;5050458;28;20020;-60
2022/05/29 13:35:53;;;;;;;3.20;1.00;;;23.30;46.20;;;;;;5050238;28;20031;-59
2022/05/29 13:38:46;;;;;;;3.17;1.05;;;23.30;46.40;;;;;;5049351;28;20047;-61
2022/05/29 13:41:26;;;;;;;2.80;1.13;;;23.30;46.20;;;;;;5048994;28;20036;-60
2022/05/29 13:43:52;;;;;;;3.28;1.10;;;23.40;46.30;;;;;;5047675;28;20025;-62
2022/05/29 13:46:25;;;;;;;4.20;1.50;;;23.30;46.20;;;;;;5049592;28;20116;-61
2022/05/29 13:49:04;;;;;;;4.32;1.27;;;23.30;46.10;;;;;;5048516;28;20510;-60
2022/05/29 13:51:41;;;;;;;4.13;1.40;;;23.30;46.10;;;;;;5049279;28;20054;-63
2022/05/29 13:54:12;;;;;;;3.85;1.38;;;23.30;46.00;;;;;;5049408;28;20127;-63
2022/05/29 13:56:55;;;;;;;4.28;1.23;;;23.30;46.00;;;;;;5048703;28;20106;-63